createdAt,value
2019-06-26T00:01:49.684Z,2.15
2019-06-26T00:04:21.712Z,2.33
2019-06-26T00:06:53.876Z,2.30
2019-06-26T00:09:25.842Z,2.17
2019-06-26T00:11:58.054Z,2.60
2019-06-26T00:14:30.186Z,2.83
2019-06-26T00:17:02.137Z,2.25
2019-06-26T00:19:34.416Z,2.15
2019-06-26T00:22:06.564Z,2.37
2019-06-26T00:24:38.854Z,2.42
2019-06-26T00:27:11.015Z,2.20
2019-06-26T00:29:43.186Z,2.25
2019-06-26T00:32:15.264Z,1.80
2019-06-26T00:34:47.423Z,2.22
2019-06-26T00:37:19.392Z,2.22
2019-06-26T00:39:51.795Z,1.87
2019-06-26T00:42:31.644Z,2.55
2019-06-26T00:45:07.519Z,2.27
2019-06-26T00:47:39.734Z,2.37
2019-06-26T00:50:12.008Z,2.70
2019-06-26T00:52:44.065Z,2.58
2019-06-26T00:55:16.246Z,2.35
2019-06-26T00:57:48.093Z,2.40
2019-06-26T01:00:23.546Z,2.47
2019-06-26T01:02:55.612Z,2.47
2019-06-26T01:05:27.697Z,2.50
2019-06-26T01:07:59.937Z,2.10
2019-06-26T01:10:32.505Z,2.08
2019-06-26T01:13:04.282Z,2.10
2019-06-26T01:15:39.012Z,2.30
2019-06-26T01:18:11.177Z,2.00
2019-06-26T01:20:43.446Z,1.92
2019-06-26T01:23:15.560Z,2.33
2019-06-26T01:25:47.780Z,2.08
2019-06-26T01:28:19.845Z,2.15
2019-06-26T01:30:51.916Z,2.10
2019-06-26T01:33:24.509Z,2.35
2019-06-26T01:35:56.677Z,2.72
2019-06-26T01:38:29.336Z,2.77
2019-06-26T01:41:01.503Z,3.08
2019-06-26T01:43:33.685Z,3.30
2019-06-26T01:46:05.946Z,4.03
2019-06-26T01:48:38.523Z,4.37
2019-06-26T01:51:10.486Z,4.30
2019-06-26T01:53:42.651Z,3.70
2019-06-26T01:56:16.006Z,3.67
2019-06-26T01:58:48.229Z,3.05
2019-06-26T02:01:21.653Z,3.42
2019-06-26T02:03:54.401Z,3.75
2019-06-26T02:06:26.879Z,4.83
2019-06-26T02:08:58.940Z,4.00
2019-06-26T02:11:30.902Z,3.50
2019-06-26T02:14:02.984Z,3.70
2019-06-26T02:16:35.955Z,3.83
2019-06-26T02:19:09.761Z,3.58
2019-06-26T02:21:41.558Z,3.23
2019-06-26T02:24:14.031Z,3.90
2019-06-26T02:26:46.473Z,3.98
2019-06-26T02:29:19.964Z,2.83
2019-06-26T02:31:53.472Z,3.15
2019-06-26T02:34:25.663Z,3.47
2019-06-26T02:36:57.924Z,3.00
2019-06-26T02:39:30.125Z,3.60
2019-06-26T02:42:02.041Z,3.70
2019-06-26T02:44:52.376Z,4.30
2019-06-26T02:47:19.741Z,3.50
2019-06-26T02:49:43.257Z,3.85
2019-06-26T02:52:15.683Z,3.35
2019-06-26T02:54:48.106Z,3.72
2019-06-26T02:57:20.170Z,3.52
2019-06-26T02:59:52.236Z,3.05
2019-06-26T03:02:24.421Z,3.42
2019-06-26T03:04:56.588Z,3.87
2019-06-26T03:07:28.838Z,3.33
2019-06-26T03:10:00.818Z,3.17
2019-06-26T03:12:33.177Z,3.20
2019-06-26T03:15:10.163Z,3.00
2019-06-26T03:17:54.626Z,3.25
2019-06-26T03:20:19.099Z,3.12
2019-06-26T03:22:51.063Z,2.92
2019-06-26T03:25:23.149Z,3.02
2019-06-26T03:27:55.096Z,2.98
2019-06-26T03:30:27.128Z,3.10
2019-06-26T03:32:59.640Z,3.10
2019-06-26T03:35:34.446Z,3.17
2019-06-26T03:38:06.434Z,3.60
2019-06-26T03:40:41.120Z,3.45
2019-06-26T03:43:19.330Z,3.20
2019-06-26T03:45:51.265Z,3.42
2019-06-26T03:48:23.396Z,3.10
2019-06-26T03:50:55.363Z,3.45
2019-06-26T03:53:28.143Z,3.50
2019-06-26T03:56:00.208Z,3.72
2019-06-26T03:58:32.327Z,4.85
2019-06-26T04:01:04.858Z,5.53
2019-06-26T04:03:36.916Z,6.08
2019-06-26T04:06:08.884Z,5.25
2019-06-26T04:08:41.460Z,5.12
2019-06-26T04:11:13.629Z,4.60
2019-06-26T04:13:45.588Z,3.92
2019-06-26T04:16:17.557Z,4.53
2019-06-26T04:18:49.516Z,4.10
2019-06-26T04:21:21.481Z,3.85
2019-06-26T04:23:54.260Z,4.12
2019-06-26T04:26:26.163Z,4.83
2019-06-26T04:28:58.289Z,5.20
2019-06-26T04:31:30.310Z,5.10
2019-06-26T04:34:02.737Z,4.20
2019-06-26T04:36:35.408Z,4.22
2019-06-26T04:39:07.678Z,3.80
2019-06-26T04:41:39.653Z,3.95
2019-06-26T04:44:11.707Z,3.72
2019-06-26T04:46:43.777Z,4.15
2019-06-26T04:49:15.840Z,4.22
2019-06-26T04:51:48.111Z,3.77
2019-06-26T04:54:20.175Z,4.40
2019-06-26T04:56:52.469Z,3.72
2019-06-26T04:59:24.413Z,3.55
2019-06-26T05:01:56.583Z,3.05
2019-06-26T05:04:32.558Z,3.80
2019-06-26T05:07:04.603Z,3.92
2019-06-26T05:09:36.781Z,3.20
2019-06-26T05:12:08.946Z,2.40
2019-06-26T05:14:41.035Z,2.42
2019-06-26T05:17:13.480Z,2.52
2019-06-26T05:19:45.652Z,2.10
2019-06-26T05:22:18.021Z,2.50
2019-06-26T05:24:50.701Z,2.35
2019-06-26T05:27:22.562Z,2.40
2019-06-26T05:29:54.931Z,2.10
2019-06-26T05:35:02.344Z,2.37
2019-06-26T05:37:37.195Z,2.83
2019-06-26T05:40:14.457Z,2.00
2019-06-26T05:42:54.718Z,2.30
2019-06-26T05:45:27.189Z,2.75
2019-06-26T05:48:00.401Z,2.77
2019-06-26T05:50:32.200Z,3.20
2019-06-26T05:53:04.620Z,2.50
2019-06-26T05:55:36.614Z,2.20
2019-06-26T05:58:08.382Z,2.50
2019-06-26T06:00:40.170Z,2.08
2019-06-26T06:03:11.944Z,2.40
2019-06-26T06:05:43.692Z,3.00
2019-06-26T06:08:15.579Z,3.15
2019-06-26T06:10:48.361Z,3.90
2019-06-26T06:13:20.635Z,3.83
2019-06-26T06:15:53.005Z,3.30
2019-06-26T06:18:25.484Z,3.47
2019-06-26T06:20:58.831Z,3.75
2019-06-26T06:23:31.069Z,3.27
2019-06-26T06:26:03.113Z,3.40
2019-06-26T06:28:35.500Z,3.92
2019-06-26T06:31:07.840Z,3.77
2019-06-26T06:33:40.183Z,2.98
2019-06-26T06:36:12.196Z,2.55
2019-06-26T06:38:44.669Z,3.05
2019-06-26T06:41:17.149Z,2.83
2019-06-26T06:43:49.517Z,2.40
2019-06-26T06:46:22.123Z,2.52
2019-06-26T06:48:54.570Z,2.20
2019-06-26T06:51:27.045Z,2.25
2019-06-26T06:53:59.324Z,2.00
2019-06-26T06:56:32.303Z,2.22
2019-06-26T06:59:04.575Z,1.87
2019-06-26T07:01:37.253Z,1.62
2019-06-26T07:04:09.574Z,2.20
2019-06-26T07:06:41.861Z,1.95
2019-06-26T07:09:18.806Z,1.60
2019-06-26T07:11:53.334Z,1.55
2019-06-26T07:14:25.637Z,1.42
2019-06-26T07:17:01.342Z,1.45
2019-06-26T07:19:31.956Z,1.50
2019-06-26T07:22:07.156Z,0.90
2019-06-26T07:24:38.031Z,1.17
2019-06-26T07:27:10.712Z,1.20
2019-06-26T07:29:42.578Z,1.32
2019-06-26T07:32:14.957Z,1.50
2019-06-26T07:34:47.214Z,2.40
2019-06-26T07:37:19.384Z,1.82
2019-06-26T07:39:51.607Z,1.30
2019-06-26T07:42:24.471Z,1.52
2019-06-26T07:44:57.207Z,1.52
2019-06-26T07:47:42.442Z,1.82
2019-06-26T07:50:04.792Z,1.52
2019-06-26T07:52:36.899Z,1.00
2019-06-26T07:55:18.346Z,1.40
2019-06-26T07:57:54.758Z,1.07
2019-06-26T08:00:31.190Z,1.52
2019-06-26T08:03:04.226Z,1.20
2019-06-26T08:05:36.071Z,1.30
2019-06-26T08:08:08.318Z,0.90
2019-06-26T08:10:40.301Z,0.82
2019-06-26T08:13:12.649Z,1.50
2019-06-26T08:15:45.153Z,1.55
2019-06-26T08:18:17.324Z,1.17
2019-06-26T08:21:07.307Z,1.80
2019-06-26T08:23:25.678Z,1.45
2019-06-26T08:28:31.112Z,1.47
2019-06-26T08:31:03.181Z,1.30
2019-06-26T08:33:35.751Z,2.20
2019-06-26T08:36:08.751Z,1.75
2019-06-26T08:38:40.602Z,1.37
2019-06-26T08:41:12.947Z,1.75
2019-06-26T08:43:45.664Z,1.10
2019-06-26T08:46:17.825Z,1.30
2019-06-26T08:48:52.062Z,1.50
2019-06-26T08:51:24.424Z,1.20
2019-06-26T08:53:56.955Z,1.50
2019-06-26T08:56:29.412Z,1.30
2019-06-26T08:59:02.044Z,1.62
2019-06-26T09:01:34.421Z,1.67
2019-06-26T09:04:06.629Z,1.27
2019-06-26T09:06:39.005Z,1.35
2019-06-26T09:09:10.921Z,1.47
2019-06-26T09:11:43.101Z,1.72
2019-06-26T09:14:15.364Z,2.20
2019-06-26T09:16:47.731Z,1.60
2019-06-26T09:19:20.079Z,1.77
2019-06-26T09:21:52.291Z,1.55
2019-06-26T09:24:24.353Z,1.30
2019-06-26T09:26:56.201Z,1.30
2019-06-26T09:29:28.473Z,1.27
2019-06-26T09:32:01.552Z,1.20
2019-06-26T09:34:34.034Z,1.20
2019-06-26T09:37:05.999Z,1.30
2019-06-26T09:39:38.065Z,1.32
2019-06-26T09:42:10.027Z,1.55
2019-06-26T09:44:42.509Z,1.25
2019-06-26T09:47:15.750Z,1.82
2019-06-26T09:49:47.771Z,1.87
2019-06-26T09:52:19.857Z,1.32
2019-06-26T09:54:52.514Z,1.32
2019-06-26T09:57:24.680Z,1.25
2019-06-26T09:59:56.744Z,1.40
2019-06-26T10:02:29.012Z,1.12
2019-06-26T10:05:01.201Z,1.40
2019-06-26T10:07:33.762Z,1.40
2019-06-26T10:10:06.541Z,1.27
2019-06-26T10:12:38.400Z,1.50
2019-06-26T10:15:10.677Z,1.50
2019-06-26T10:17:42.741Z,1.37
2019-06-26T10:20:16.645Z,1.45
2019-06-26T10:22:49.033Z,1.45
2019-06-26T10:25:23.061Z,1.22
2019-06-26T10:27:55.787Z,1.30
2019-06-26T10:30:30.765Z,1.30
2019-06-26T10:33:03.735Z,1.40
2019-06-26T10:35:35.919Z,1.40
2019-06-26T10:38:07.829Z,1.30
2019-06-26T10:40:40.055Z,1.72
2019-06-26T10:43:12.105Z,1.02
2019-06-26T10:45:45.187Z,1.00
2019-06-26T10:48:18.920Z,1.20
2019-06-26T10:50:58.192Z,1.42
2019-06-26T10:53:24.766Z,1.20
2019-06-26T10:55:57.138Z,1.07
2019-06-26T10:58:29.172Z,1.10
2019-06-26T11:01:00.963Z,1.30
2019-06-26T11:03:33.275Z,1.02
2019-06-26T11:06:05.710Z,1.15
2019-06-26T11:08:37.877Z,1.40
2019-06-26T11:11:10.054Z,1.30
2019-06-26T11:13:42.035Z,1.02
2019-06-26T11:16:13.869Z,1.27
2019-06-26T11:18:46.096Z,1.07
2019-06-26T11:21:18.926Z,1.12
2019-06-26T11:23:51.823Z,1.30
2019-06-26T11:26:23.878Z,0.98
2019-06-26T11:28:55.999Z,0.90
2019-06-26T11:31:28.107Z,1.17
2019-06-26T11:34:00.109Z,2.20
2019-06-26T11:36:32.348Z,1.35
2019-06-26T11:39:06.864Z,1.10
2019-06-26T11:41:38.730Z,2.08
2019-06-26T11:44:10.624Z,1.20
2019-06-26T11:46:42.858Z,1.00
2019-06-26T11:49:14.721Z,0.98
2019-06-26T11:51:46.785Z,7.05
2019-06-26T11:54:18.613Z,1.47
2019-06-26T11:56:50.665Z,1.42
2019-06-26T11:59:22.981Z,1.30
2019-06-26T12:01:56.821Z,1.80
2019-06-26T12:04:28.857Z,2.50
2019-06-26T12:07:17.119Z,1.70
2019-06-26T12:09:49.275Z,1.30
2019-06-26T12:12:21.335Z,1.02
2019-06-26T12:14:53.602Z,1.40
2019-06-26T12:17:26.085Z,1.27
2019-06-26T12:20:16.980Z,1.40
2019-06-26T12:22:35.028Z,2.85
2019-06-26T12:25:07.197Z,1.80
2019-06-26T12:27:55.638Z,1.27
2019-06-26T12:30:43.891Z,1.47
2019-06-26T12:33:32.341Z,1.95
2019-06-26T12:36:04.916Z,1.55
2019-06-26T12:38:52.906Z,1.70
2019-06-26T12:41:25.053Z,4.22
2019-06-26T12:43:57.290Z,2.15
2019-06-26T12:46:29.165Z,1.55
2019-06-26T12:49:17.192Z,1.80
2019-06-26T12:51:49.156Z,1.65
2019-06-26T12:54:21.350Z,2.10
2019-06-26T12:57:09.377Z,1.45
2019-06-26T12:59:56.022Z,1.57
2019-06-26T13:02:14.975Z,1.37
2019-06-26T13:04:58.722Z,1.50
2019-06-26T13:07:31.556Z,1.50
2019-06-26T13:10:07.891Z,1.47
2019-06-26T13:12:40.498Z,1.55
2019-06-26T13:15:12.664Z,2.87
2019-06-26T13:17:45.053Z,2.25
2019-06-26T13:20:17.292Z,1.70
2019-06-26T13:22:49.681Z,1.72
2019-06-26T13:25:21.544Z,1.87
2019-06-26T13:27:53.709Z,2.80
2019-06-26T13:30:32.032Z,1.87
2019-06-26T13:33:04.092Z,1.82
2019-06-26T13:35:36.152Z,1.70
2019-06-26T13:38:08.536Z,1.60
2019-06-26T13:40:41.420Z,2.37
2019-06-26T13:43:13.588Z,1.65
2019-06-26T13:45:45.443Z,2.20
2019-06-26T13:48:17.407Z,1.98
2019-06-26T13:50:49.575Z,1.62
2019-06-26T13:53:21.603Z,1.62
2019-06-26T13:55:53.711Z,2.33
2019-06-26T13:58:25.832Z,4.35
2019-06-26T14:00:57.919Z,1.70
2019-06-26T14:03:29.713Z,2.22
2019-06-26T14:06:01.822Z,4.10
2019-06-26T14:08:34.044Z,1.92
2019-06-26T14:11:07.590Z,1.55
2019-06-26T14:13:41.938Z,1.85
2019-06-26T14:16:13.101Z,2.30
2019-06-26T14:18:45.273Z,1.90
2019-06-26T14:21:25.443Z,1.77
2019-06-26T14:23:51.675Z,2.15
2019-06-26T14:26:23.506Z,1.60
2019-06-26T14:28:55.581Z,1.52
2019-06-26T14:31:27.659Z,2.02
2019-06-26T14:34:16.317Z,2.17
2019-06-26T14:36:48.255Z,1.92
2019-06-26T14:39:20.327Z,2.27
2019-06-26T14:41:52.343Z,2.02
2019-06-26T14:44:24.243Z,1.20
2019-06-26T14:46:56.611Z,2.00
2019-06-26T14:49:28.486Z,2.00
2019-06-26T14:52:00.546Z,2.10
2019-06-26T14:54:32.651Z,2.00
2019-06-26T14:57:06.633Z,2.20
2019-06-26T14:59:38.894Z,2.10
2019-06-26T15:02:11.895Z,2.20
2019-06-26T15:04:46.198Z,3.90
2019-06-26T15:07:17.691Z,2.12
2019-06-26T15:09:50.132Z,1.82
2019-06-26T15:12:22.545Z,2.02
2019-06-26T15:14:57.833Z,1.67
2019-06-26T15:17:29.701Z,3.72
2019-06-26T15:20:01.766Z,1.87
2019-06-26T15:22:34.649Z,4.92
2019-06-26T15:25:07.808Z,2.20
2019-06-26T15:27:39.803Z,1.30
2019-06-26T15:30:11.651Z,2.17
2019-06-26T15:32:43.521Z,2.45
2019-06-26T15:35:15.593Z,1.70
2019-06-26T15:37:47.550Z,2.50
2019-06-26T15:40:19.525Z,1.92
2019-06-26T15:42:51.587Z,1.52
2019-06-26T15:45:23.546Z,1.87
2019-06-26T15:47:55.613Z,1.60
2019-06-26T15:50:27.781Z,1.45
2019-06-26T15:53:00.050Z,1.30
2019-06-26T15:55:32.561Z,2.33
2019-06-26T15:58:06.450Z,2.02
2019-06-26T16:00:38.399Z,2.17
2019-06-26T16:03:10.565Z,2.52
2019-06-26T16:05:42.541Z,2.25
2019-06-26T16:08:14.594Z,2.37
2019-06-26T16:10:46.557Z,1.98
2019-06-26T16:13:20.977Z,2.30
2019-06-26T16:15:52.885Z,3.20
2019-06-26T16:18:32.345Z,2.67
2019-06-26T16:21:04.098Z,1.72
2019-06-26T16:23:35.903Z,1.95
2019-06-26T16:26:07.632Z,1.70
2019-06-26T16:28:39.426Z,1.62
2019-06-26T16:31:11.275Z,1.90
2019-06-26T16:33:43.442Z,1.45
2019-06-26T16:36:16.429Z,1.92
2019-06-26T16:38:48.192Z,2.20
2019-06-26T16:41:20.152Z,1.77
2019-06-26T16:43:52.321Z,2.45
2019-06-26T16:46:25.416Z,2.70
2019-06-26T16:48:57.373Z,2.87
2019-06-26T16:51:29.483Z,2.40
2019-06-26T16:54:01.816Z,2.50
2019-06-26T16:56:34.082Z,2.40
2019-06-26T16:59:06.359Z,2.27
2019-06-26T17:01:38.728Z,2.25
2019-06-26T17:04:10.484Z,2.92
2019-06-26T17:06:42.965Z,3.27
2019-06-26T17:09:15.128Z,4.92
2019-06-26T17:11:47.399Z,2.45
2019-06-26T17:14:19.775Z,3.27
2019-06-26T17:16:51.735Z,2.85
2019-06-26T17:19:24.312Z,3.37
2019-06-26T17:21:56.489Z,2.95
2019-06-26T17:24:29.880Z,2.95
2019-06-26T17:27:01.845Z,3.47
2019-06-26T17:29:33.813Z,3.20
2019-06-26T17:32:05.771Z,3.33
2019-06-26T17:34:38.552Z,3.35
2019-06-26T17:37:10.519Z,3.20
2019-06-26T17:39:42.477Z,2.55
2019-06-26T17:42:15.159Z,2.77
2019-06-26T17:44:47.225Z,2.83
2019-06-26T17:47:19.274Z,2.35
2019-06-26T17:49:51.051Z,2.55
2019-06-26T17:52:22.901Z,2.80
2019-06-26T17:54:54.767Z,3.00
2019-06-26T17:57:26.584Z,2.60
2019-06-26T17:59:58.897Z,2.98
2019-06-26T18:02:30.765Z,3.10
2019-06-26T18:05:03.135Z,2.85
2019-06-26T18:07:35.509Z,2.85
2019-06-26T18:10:08.195Z,3.40
2019-06-26T18:12:40.150Z,3.42
2019-06-26T18:15:12.319Z,3.60
2019-06-26T18:17:44.485Z,4.50
2019-06-26T18:20:17.073Z,4.83
2019-06-26T18:23:02.496Z,4.15
2019-06-26T18:25:22.627Z,4.87
2019-06-26T18:27:55.004Z,5.17
2019-06-26T18:30:27.280Z,3.77
2019-06-26T18:32:59.541Z,4.47
2019-06-26T18:35:32.531Z,4.90
2019-06-26T18:38:04.801Z,4.53
2019-06-26T18:40:37.074Z,4.97
2019-06-26T18:43:09.139Z,4.85
2019-06-26T18:45:41.615Z,5.55
2019-06-26T18:48:13.955Z,4.83
2019-06-26T18:50:47.073Z,4.22
2019-06-26T18:53:19.144Z,4.15
2019-06-26T18:55:51.709Z,4.17
2019-06-26T18:58:23.601Z,4.12
2019-06-26T19:00:55.585Z,3.90
2019-06-26T19:03:29.363Z,4.53
2019-06-26T19:06:01.371Z,4.30
2019-06-26T19:08:33.810Z,3.83
2019-06-26T19:11:05.816Z,4.22
2019-06-26T19:13:39.188Z,3.65
2019-06-26T19:16:11.239Z,4.33
2019-06-26T19:18:43.703Z,3.50
2019-06-26T19:21:15.829Z,4.25
2019-06-26T19:23:47.685Z,4.03
2019-06-26T19:26:21.801Z,4.08
2019-06-26T19:28:54.100Z,4.78
2019-06-26T19:31:26.297Z,4.42
2019-06-26T19:33:58.698Z,4.55
2019-06-26T19:36:49.017Z,4.85
2019-06-26T19:39:07.272Z,4.37
2019-06-26T19:41:40.532Z,4.62
2019-06-26T19:44:12.856Z,4.70
2019-06-26T19:46:45.185Z,4.75
2019-06-26T19:49:17.398Z,4.58
2019-06-26T19:51:50.288Z,5.55
2019-06-26T19:54:27.108Z,6.30
2019-06-26T19:56:56.654Z,6.45
2019-06-26T19:59:29.319Z,6.97
2019-06-26T20:02:01.606Z,7.78
2019-06-26T20:04:34.301Z,8.68
2019-06-26T20:07:06.554Z,8.70
2019-06-26T20:09:38.709Z,10.63
2019-06-26T20:12:12.393Z,11.88
2019-06-26T20:14:44.558Z,13.32
2019-06-26T20:17:16.743Z,14.13
2019-06-26T20:19:48.822Z,13.30
2019-06-26T20:22:21.186Z,13.75
2019-06-26T20:24:57.192Z,15.43
2019-06-26T20:27:27.065Z,14.80
2019-06-26T20:29:59.336Z,15.23
2019-06-26T20:32:34.268Z,14.73
2019-06-26T20:35:07.200Z,14.45
2019-06-26T20:37:39.544Z,16.07
2019-06-26T20:40:11.899Z,16.10
2019-06-26T20:42:44.173Z,16.85
2019-06-26T20:45:16.442Z,16.55
2019-06-26T20:47:48.633Z,17.92
2019-06-26T20:50:20.982Z,17.85
2019-06-26T20:52:53.153Z,18.82
2019-06-26T20:55:25.422Z,18.40
2019-06-26T20:57:57.620Z,20.48
2019-06-26T21:00:30.179Z,20.37
2019-06-26T21:03:02.758Z,21.05
2019-06-26T21:05:34.808Z,20.17
2019-06-26T21:08:06.979Z,23.62
2019-06-26T21:10:39.249Z,21.23
2019-06-26T21:13:12.657Z,23.45
2019-06-26T21:15:44.824Z,26.20
2019-06-26T21:18:16.879Z,25.52
2019-06-26T21:20:49.358Z,26.75
2019-06-26T21:23:23.514Z,28.12
2019-06-26T21:25:55.124Z,28.20
2019-06-26T21:28:27.190Z,27.85
2019-06-26T21:30:59.035Z,26.77
2019-06-26T21:33:31.437Z,27.35
2019-06-26T21:36:03.713Z,27.55
2019-06-26T21:38:36.067Z,25.08
2019-06-26T21:41:08.138Z,26.10
2019-06-26T21:43:40.200Z,24.40
2019-06-26T21:46:12.267Z,26.50
2019-06-26T21:48:44.330Z,24.10
2019-06-26T21:51:16.503Z,27.07
2019-06-26T21:53:48.780Z,24.50
2019-06-26T21:56:40.087Z,26.20
2019-06-26T21:59:30.685Z,24.35
2019-06-26T22:02:21.032Z,25.08
2019-06-26T22:04:57.874Z,24.25
2019-06-26T22:07:31.458Z,24.18
2019-06-26T22:10:08.354Z,24.55
2019-06-26T22:12:41.741Z,24.57
2019-06-26T22:15:14.109Z,25.85
2019-06-26T22:17:46.582Z,26.07
2019-06-26T22:20:19.726Z,29.85
2019-06-26T22:22:52.263Z,31.60
2019-06-26T22:25:24.526Z,36.13
2019-06-26T22:27:56.587Z,35.30
2019-06-26T22:30:28.823Z,35.98
2019-06-26T22:33:01.173Z,37.83
2019-06-26T22:35:33.510Z,36.98
2019-06-26T22:38:05.467Z,37.53
2019-06-26T22:40:37.770Z,38.15
2019-06-26T22:43:09.701Z,38.08
2019-06-26T22:45:42.075Z,36.88
2019-06-26T22:48:14.039Z,37.38
2019-06-26T22:50:46.206Z,36.13
2019-06-26T22:53:18.490Z,36.93
2019-06-26T22:56:06.418Z,35.73
2019-06-26T22:58:24.448Z,34.60
2019-06-26T23:00:56.689Z,33.92
2019-06-26T23:03:29.400Z,34.65
2019-06-26T23:06:01.673Z,34.08
2019-06-26T23:08:33.728Z,33.78
2019-06-26T23:11:05.685Z,32.75
2019-06-26T23:13:38.129Z,33.00
2019-06-26T23:16:10.555Z,34.38
2019-06-26T23:18:42.515Z,33.15
2019-06-26T23:21:14.580Z,33.23
2019-06-26T23:23:47.055Z,33.80
2019-06-26T23:26:23.843Z,33.10
2019-06-26T23:28:52.925Z,34.23
2019-06-26T23:31:25.106Z,32.55
2019-06-26T23:33:57.670Z,35.65
2019-06-26T23:36:29.941Z,35.88
2019-06-26T23:39:02.218Z,36.65
2019-06-26T23:41:34.283Z,36.35
2019-06-26T23:44:06.548Z,35.55
2019-06-26T23:46:38.819Z,34.98
2019-06-26T23:49:10.986Z,36.70
2019-06-26T23:51:43.309Z,35.85
2019-06-26T23:54:15.630Z,34.30
2019-06-26T23:56:47.795Z,33.25
2019-06-26T23:59:20.069Z,33.60
